Time;durP1;ratioP1;P1;durP2;ratioP2;P2;SDS_P1;SDS_P2;PMS_P1;PMS_P2;Temp;Humidity;BMP_temperature;BMP_pressure;BME280_temperature;BME280_humidity;BME280_pressure;Samples;Min_cycle;Max_cycle;Signal;HPM_P1;HPM_P2
2023/10/15 00:00:19;;;;;;;15.13;8.25;;;;;;;17.76;100.00;98030.19;4995624;28;20574;-74
2023/10/15 00:02:48;;;;;;;10.93;7.68;;;;;;;17.57;100.00;98034.16;4979315;28;20050;-72
2023/10/15 00:05:19;;;;;;;12.45;8.00;;;;;;;17.66;100.00;98030.00;4995696;28;20050;-71
2023/10/15 00:07:47;;;;;;;14.45;8.00;;;;;;;17.56;100.00;98017.22;4995877;28;20058;-71
2023/10/15 00:10:15;;;;;;;12.90;8.25;;;;;;;17.61;100.00;98051.38;4979895;28;20049;-71
2023/10/15 00:12:43;;;;;;;11.45;8.10;;;;;;;17.60;100.00;98033.66;4995527;28;20476;-72
2023/10/15 00:15:28;;;;;;;15.90;8.32;;;;;;;17.50;100.00;98025.41;4979868;28;20034;-71
2023/10/15 00:18:02;;;;;;;14.02;7.93;;;;;;;17.53;100.00;98038.38;4982300;28;20140;-71
2023/10/15 00:20:34;;;;;;;15.90;8.55;;;;;;;17.57;100.00;98044.88;4996259;28;20041;-71
2023/10/15 00:23:05;;;;;;;13.98;8.65;;;;;;;17.76;100.00;98030.19;4996926;28;20052;-70
2023/10/15 00:25:35;;;;;;;13.07;9.20;;;;;;;17.69;100.00;98037.59;5020046;28;20368;-71
2023/10/15 00:28:09;;;;;;;12.95;8.07;;;;;;;17.71;100.00;98032.78;5020241;28;20056;-71
2023/10/15 00:30:37;;;;;;;12.63;8.18;;;;;;;17.55;100.00;98038.94;5035660;28;20494;-71
2023/10/15 00:33:11;;;;;;;11.57;7.53;;;;;;;17.53;100.00;98041.84;5036658;28;20051;-72
2023/10/15 00:35:44;;;;;;;11.40;8.20;;;;;;;17.65;100.00;98041.81;5019283;28;20143;-72
2023/10/15 00:38:15;;;;;;;13.00;8.02;;;;;;;17.58;100.00;98038.44;5019981;28;20090;-71
2023/10/15 00:40:41;;;;;;;10.40;7.25;;;;;;;17.58;100.00;98025.03;5052242;28;20045;-72
2023/10/15 00:43:08;;;;;;;15.27;7.85;;;;;;;17.57;100.00;98034.16;5035127;28;20547;-72
2023/10/15 00:45:39;;;;;;;9.35;7.32;;;;;;;17.57;100.00;98012.66;5035181;28;20049;-72
2023/10/15 00:50:47;;;;;;;11.25;8.00;;;;;;;17.67;100.00;98010.16;5035021;28;20041;-71
2023/10/15 00:53:27;;;;;;;11.00;7.78;;;;;;;17.68;100.00;98011.81;5020234;28;20049;-71
2023/10/15 00:55:54;;;;;;;14.30;8.13;;;;;;;17.74;100.00;98018.88;5003860;28;20391;-73
2023/10/15 01:01:20;;;;;;;11.50;7.05;;;;;;;17.68;100.00;98025.22;5021240;28;20064;-72
2023/10/15 01:03:54;;;;;;;8.80;7.15;;;;;;;17.71;100.00;98014.78;5021577;28;20051;-71
2023/10/15 01:06:29;;;;;;;11.23;7.10;;;;;;;17.70;100.00;98017.72;5019007;28;20498;-73
2023/10/15 01:09:09;;;;;;;10.00;6.90;;;;;;;17.76;100.00;98022.16;5003007;28;20498;-72
2023/10/15 01:11:51;;;;;;;13.48;7.35;;;;;;;17.79;100.00;98019.78;5035026;28;20542;-73
2023/10/15 01:14:26;;;;;;;10.00;7.15;;;;;;;17.62;100.00;98013.56;5019970;28;20548;-71
2023/10/15 01:16:53;;;;;;;10.00;6.93;;;;;;;17.70;100.00;98010.50;5002896;28;20072;-72
2023/10/15 01:19:31;;;;;;;12.95;6.88;;;;;;;17.62;100.00;98002.81;5001866;28;20045;-72
2023/10/15 01:21:58;;;;;;;12.50;7.10;;;;;;;17.61;100.00;97998.53;5003383;28;20044;-71
2023/10/15 01:24:26;;;;;;;14.13;7.35;;;;;;;17.64;100.00;98007.94;4993918;28;20061;-71
2023/10/15 01:29:28;;;;;;;10.60;7.20;;;;;;;17.60;100.00;98012.19;4993892;28;20092;-71
2023/10/15 01:32:09;;;;;;;11.32;7.38;;;;;;;17.55;100.00;98004.88;4961635;28;20042;-71
2023/10/15 01:34:44;;;;;;;11.55;6.78;;;;;;;17.64;100.00;98002.59;4979481;28;20085;-71
2023/10/15 01:40:00;;;;;;;13.43;7.15;;;;;;;17.80;100.00;97996.44;4979276;28;20411;-71
2023/10/15 01:45:13;;;;;;;12.48;7.85;;;;;;;17.61;100.00;98003.88;4978022;28;20050;-71
2023/10/15 01:50:16;;;;;;;13.57;7.47;;;;;;;17.64;100.00;97998.03;4977965;28;20077;-71
2023/10/15 01:52:42;;;;;;;13.07;7.50;;;;;;;17.72;100.00;98002.19;4961259;28;20048;-71
2023/10/15 01:55:09;;;;;;;19.33;7.70;;;;;;;17.61;100.00;97995.84;4998959;28;20076;-71
2023/10/15 01:57:36;;;;;;;12.40;7.38;;;;;;;17.77;100.00;98005.78;5017477;28;20047;-73
2023/10/15 02:01:09;;;;;;;13.55;7.78;;;;;;;17.64;100.00;98000.72;5050528;28;20374;-72
2023/10/15 02:03:02;;;;;;;12.13;7.22;;;;;;;17.58;100.00;97996.31;4996621;28;20394;-72
2023/10/15 02:05:41;;;;;;;13.32;7.38;;;;;;;17.71;100.00;97998.69;5017929;28;20049;-72
2023/10/15 02:08:26;;;;;;;12.43;7.10;;;;;;;17.79;100.00;98011.72;5019021;28;20083;-71
2023/10/15 02:10:53;;;;;;;10.05;6.75;;;;;;;17.70;100.00;98001.59;5034536;28;20056;-73
2023/10/15 02:13:21;;;;;;;11.25;7.05;;;;;;;17.59;100.00;98002.50;5034676;28;20145;-71
2023/10/15 02:15:49;;;;;;;10.55;7.30;;;;;;;17.65;100.00;97999.66;5050984;28;20041;-73
2023/10/15 02:18:19;;;;;;;15.20;7.63;;;;;;;17.53;100.00;98011.53;5001532;28;20480;-72
2023/10/15 02:20:59;;;;;;;11.75;7.40;;;;;;;17.62;100.00;97994.78;5018301;28;20056;-72
2023/10/15 02:23:25;;;;;;;13.50;7.70;;;;;;;17.48;100.00;97985.41;5051228;28;20076;-72
2023/10/15 02:25:58;;;;;;;10.05;7.65;;;;;;;17.50;100.00;97996.72;5034041;28;20087;-72
2023/10/15 02:28:32;;;;;;;14.40;7.40;;;;;;;17.48;100.00;97992.66;5033906;28;20055;-73
2023/10/15 02:31:22;;;;;;;13.30;8.23;;;;;;;17.49;100.00;98003.16;5050702;28;20479;-72
2023/10/15 02:33:45;;;;;;;16.00;7.82;;;;;;;17.33;100.00;97995.81;5036207;28;20118;-72
2023/10/15 02:36:16;;;;;;;13.48;8.57;;;;;;;17.38;100.00;98003.16;5018914;28;20044;-72
2023/10/15 02:38:59;;;;;;;11.13;7.55;;;;;;;17.54;100.00;98008.63;5054234;28;20044;-72
2023/10/15 02:41:31;;;;;;;10.48;7.38;;;;;;;17.42;100.00;97993.59;5023353;28;20049;-71
2023/10/15 02:43:57;;;;;;;11.18;7.57;;;;;;;17.47;100.00;97999.06;5021906;28;20041;-72
2023/10/15 02:48:59;;;;;;;14.35;8.02;;;;;;;17.58;100.00;97998.19;5022025;28;20144;-71
2023/10/15 02:51:24;;;;;;;10.52;7.25;;;;;;;17.59;100.00;98006.00;5037583;28;20128;-73
2023/10/15 02:54:01;;;;;;;12.13;7.25;;;;;;;17.70;100.00;98007.81;5020971;28;20521;-72
2023/10/15 02:56:28;;;;;;;11.02;7.20;;;;;;;17.63;100.00;98006.34;5022002;28;20048;-71
2023/10/15 02:58:54;;;;;;;11.38;7.50;;;;;;;17.70;100.00;97994.38;5004939;28;20077;-72
2023/10/15 03:01:20;;;;;;;15.50;7.28;;;;;;;17.64;100.00;98000.72;5020679;28;20063;-72
2023/10/15 03:03:49;;;;;;;11.50;6.53;;;;;;;17.80;100.00;97996.44;5037137;28;20098;-72
2023/10/15 03:06:18;;;;;;;10.50;6.75;;;;;;;17.76;100.00;97997.97;5004434;28;20053;-72
2023/10/15 03:08:48;;;;;;;12.43;6.85;;;;;;;17.94;100.00;97997.72;5053551;28;20044;-73
2023/10/15 03:11:14;;;;;;;10.23;7.07;;;;;;;17.78;100.00;97987.78;5003932;28;20047;-73
2023/10/15 03:14:16;;;;;;;10.10;6.78;;;;;;;17.87;100.00;97997.88;5053442;28;20118;-75
2023/10/15 03:16:43;;;;;;;9.80;6.97;;;;;;;17.81;100.00;98004.25;5051613;28;20445;-74
2023/10/15 03:19:17;;;;;;;12.80;7.03;;;;;;;17.82;100.00;97994.31;5053453;28;20423;-73
2023/10/15 03:21:44;;;;;;;13.88;7.30;;;;;;;17.72;100.00;98000.34;5036741;28;20037;-74
2023/10/15 03:24:15;;;;;;;15.05;7.22;;;;;;;17.73;100.00;97999.25;5019967;28;20053;-74
2023/10/15 03:26:47;;;;;;;16.83;7.30;;;;;;;17.71;100.00;97997.88;5036333;28;20091;-74
2023/10/15 03:29:14;;;;;;;14.52;7.47;;;;;;;17.74;100.00;97987.47;5037343;28;20044;-73
2023/10/15 03:31:46;;;;;;;14.23;7.15;;;;;;;17.79;100.00;97984.06;5053149;28;20041;-72
2023/10/15 03:39:15;;;;;;;11.68;7.28;;;;;;;17.98;100.00;97990.81;5036872;28;20132;-71
2023/10/15 03:41:43;;;;;;;15.10;7.07;;;;;;;17.94;100.00;97984.31;5020276;28;20074;-70
2023/10/15 03:44:10;;;;;;;14.75;7.25;;;;;;;17.90;100.00;97988.53;5019629;28;20064;-71
2023/10/15 03:46:37;;;;;;;13.25;6.93;;;;;;;17.97;100.00;98000.75;5036123;28;20041;-71
2023/10/15 03:49:07;;;;;;;10.13;6.78;;;;;;;18.04;100.00;98008.63;5035405;28;20067;-72
2023/10/15 03:51:55;;;;;;;11.43;6.88;;;;;;;18.28;100.00;98002.03;5036718;28;20049;-71
2023/10/15 03:54:23;;;;;;;13.38;7.07;;;;;;;18.03;100.00;97997.09;5005368;28;20106;-71
2023/10/15 03:56:51;;;;;;;11.80;6.90;;;;;;;18.16;100.00;98002.13;5052629;28;20045;-70
2023/10/15 03:59:20;;;;;;;13.45;7.15;;;;;;;18.09;100.00;97995.28;5053125;28;20044;-70
2023/10/15 04:01:48;;;;;;;10.77;6.90;;;;;;;18.03;100.00;97994.41;5052353;28;20036;-73
2023/10/15 04:04:18;;;;;;;16.52;6.70;;;;;;;18.25;100.00;97984.50;4978941;28;20054;-74
2023/10/15 04:07:10;;;;;;;14.05;7.18;;;;;;;18.16;100.00;97971.72;4975926;28;20137;-74
2023/10/15 04:09:36;;;;;;;12.43;7.10;;;;;;;18.05;100.00;97976.13;4959708;28;20065;-75
2023/10/15 04:12:06;;;;;;;13.82;7.38;;;;;;;18.11;100.00;97982.44;4975753;28;20140;-74
2023/10/15 04:14:34;;;;;;;18.13;7.28;;;;;;;18.15;100.00;97984.38;4976456;28;20060;-74
2023/10/15 04:17:00;;;;;;;12.80;7.25;;;;;;;18.06;100.00;97995.78;4975835;28;20054;-75
2023/10/15 04:19:27;;;;;;;17.23;7.90;;;;;;;18.07;100.00;97979.41;4976395;28;20145;-77
2023/10/15 04:21:59;;;;;;;14.88;8.10;;;;;;;18.03;100.00;97974.78;4975840;28;20049;-75
2023/10/15 04:24:41;;;;;;;12.18;7.85;;;;;;;17.96;100.00;97987.53;4976949;28;20101;-74
2023/10/15 04:27:15;;;;;;;12.43;7.97;;;;;;;17.98;100.00;98004.22;4975488;28;20166;-75
2023/10/15 04:30:00;;;;;;;15.57;7.72;;;;;;;18.02;100.00;98005.41;4991657;28;20065;-75
2023/10/15 04:32:28;;;;;;;20.38;9.20;;;;;;;17.81;100.00;97998.03;4978061;28;20042;-78
2023/10/15 04:35:05;;;;;;;12.35;8.40;;;;;;;17.86;100.00;98008.88;4999524;28;20072;-78
2023/10/15 04:37:35;;;;;;;17.17;8.07;;;;;;;17.75;100.00;98007.91;5036874;28;20121;-77
2023/10/15 04:40:04;;;;;;;18.90;8.88;;;;;;;17.73;100.00;98007.31;5002211;28;20049;-75
2023/10/15 04:42:38;;;;;;;15.93;7.90;;;;;;;17.77;100.00;98002.28;5019477;28;20053;-79
2023/10/15 04:45:44;;;;;;;17.23;9.15;;;;;;;17.71;100.00;98016.69;5003422;28;20126;-80
2023/10/15 04:47:59;;;;;;;16.48;9.38;;;;;;;17.73;100.00;98001.13;5003269;28;20061;-78
2023/10/15 04:50:32;;;;;;;17.80;9.65;;;;;;;17.88;100.00;98020.19;5018766;28;20066;-83
2023/10/15 04:53:31;;;;;;;20.02;10.18;;;;;;;17.65;100.00;98018.44;5019856;28;20397;-77
2023/10/15 04:55:52;;;;;;;17.95;9.40;;;;;;;17.77;100.00;98010.34;5039249;28;20080;-76
2023/10/15 04:58:34;;;;;;;16.33;9.40;;;;;;;17.72;100.00;98021.81;5019529;28;20394;-76
2023/10/15 05:01:00;;;;;;;19.58;9.75;;;;;;;17.63;100.00;98023.25;5018787;28;20048;-76
2023/10/15 05:03:26;;;;;;;19.20;9.85;;;;;;;17.69;100.00;98026.84;4986208;28;20068;-77
2023/10/15 05:05:55;;;;;;;15.45;9.57;;;;;;;17.69;100.00;98022.28;4994962;28;20477;-79
2023/10/15 05:08:24;;;;;;;16.63;9.25;;;;;;;17.72;100.00;98024.50;5055031;28;20052;-78
2023/10/15 05:10:50;;;;;;;15.80;9.70;;;;;;;17.73;100.00;98036.84;5022478;28;20052;-78
2023/10/15 05:13:17;;;;;;;17.85;9.50;;;;;;;17.84;100.00;98027.91;5037693;28;20398;-77
2023/10/15 05:15:47;;;;;;;17.48;10.10;;;;;;;18.05;100.00;98015.66;5020433;28;20066;-76
2023/10/15 05:18:15;;;;;;;19.00;10.00;;;;;;;17.97;100.00;98019.56;5003287;28;20040;-79
2023/10/15 05:20:44;;;;;;;12.95;9.32;;;;;;;18.04;100.00;98014.81;5037948;28;20390;-79
2023/10/15 05:23:11;;;;;;;14.82;9.43;;;;;;;17.90;100.00;98021.56;5036972;28;20044;-78
2023/10/15 05:25:39;;;;;;;15.07;9.80;;;;;;;17.70;100.00;98017.72;5021454;28;20056;-78
2023/10/15 05:28:06;;;;;;;16.30;10.13;;;;;;;17.78;100.00;98020.00;5021701;28;20036;-81
2023/10/15 05:30:33;;;;;;;18.13;9.73;;;;;;;17.84;100.00;98029.78;5038789;28;20041;-82
2023/10/15 05:33:00;;;;;;;16.90;10.48;;;;;;;17.77;100.00;98029.97;5038321;28;20339;-80
2023/10/15 05:35:28;;;;;;;12.98;10.10;;;;;;;17.72;100.00;98031.72;5039085;28;20612;-83
2023/10/15 05:37:56;;;;;;;18.00;9.57;;;;;;;17.58;100.00;98036.59;5038820;28;20079;-86
2023/10/15 05:40:22;;;;;;;18.45;10.02;;;;;;;17.54;100.00;98029.25;5037812;28;20051;-82
2023/10/15 05:42:49;;;;;;;17.38;9.82;;;;;;;17.78;100.00;98028.06;5021587;28;20398;-83
2023/10/15 05:45:17;;;;;;;25.23;10.77;;;;;;;17.92;100.00;98021.34;5054669;28;20040;-81
2023/10/15 05:47:43;;;;;;;16.40;9.85;;;;;;;17.82;100.00;98029.22;5021470;28;20056;-74
2023/10/15 05:50:10;;;;;;;17.30;10.38;;;;;;;18.02;100.00;98030.38;5054278;28;20056;-77
2023/10/15 05:52:36;;;;;;;15.05;10.00;;;;;;;17.95;100.00;98032.41;5057437;28;20102;-77
2023/10/15 05:55:05;;;;;;;17.25;9.93;;;;;;;17.99;100.00;98038.91;5021924;28;20052;-76
2023/10/15 05:57:31;;;;;;;18.80;10.20;;;;;;;17.93;100.00;98039.06;5037737;28;20044;-79
2023/10/15 05:59:57;;;;;;;20.27;10.40;;;;;;;17.97;100.00;98032.16;5054129;28;20040;-78
2023/10/15 06:02:23;;;;;;;17.63;10.82;;;;;;;17.87;100.00;98023.91;5021134;28;20056;-77
2023/10/15 06:04:49;;;;;;;21.25;11.20;;;;;;;17.86;100.00;98028.50;5020247;28;20044;-77
2023/10/15 06:07:16;;;;;;;23.05;12.23;;;;;;;17.92;100.00;98022.16;5037234;28;20044;-79
2023/10/15 06:09:46;;;;;;;20.42;11.38;;;;;;;17.91;100.00;98025.88;5013322;28;20057;-78
2023/10/15 06:12:13;;;;;;;20.23;11.50;;;;;;;17.90;100.00;98013.53;5012670;28;20475;-79
2023/10/15 06:14:40;;;;;;;17.30;11.70;;;;;;;17.91;100.00;98027.78;4997170;28;20049;-82
2023/10/15 06:17:06;;;;;;;22.05;13.95;;;;;;;17.89;100.00;98028.00;4997130;28;20115;-74
2023/10/15 06:19:31;;;;;;;25.50;13.32;;;;;;;17.99;100.00;98028.16;4980844;28;20338;-77
2023/10/15 06:21:58;;;;;;;20.38;13.25;;;;;;;18.05;100.00;98012.97;5013369;28;20056;-79
2023/10/15 06:24:25;;;;;;;21.10;13.73;;;;;;;17.93;100.00;98023.78;4980308;28;20117;-77
2023/10/15 06:26:54;;;;;;;22.38;13.80;;;;;;;18.02;100.00;98021.50;4973511;28;20500;-80
2023/10/15 06:29:23;;;;;;;20.27;13.13;;;;;;;17.87;100.00;98040.03;4942140;28;20073;-80
2023/10/15 06:31:49;;;;;;;22.60;12.40;;;;;;;17.79;100.00;98048.50;4973911;28;20058;-78
2023/10/15 06:34:15;;;;;;;18.08;12.88;;;;;;;17.71;100.00;98038.16;4957906;28;20132;-77
2023/10/15 06:36:43;;;;;;;24.48;13.35;;;;;;;17.74;100.00;98045.72;4958155;28;20065;-76
2023/10/15 06:39:10;;;;;;;21.10;13.50;;;;;;;17.74;100.00;98045.72;4973798;28;20046;-77
2023/10/15 06:41:36;;;;;;;23.30;14.32;;;;;;;17.54;100.00;98046.19;4978416;28;20449;-77
2023/10/15 06:44:04;;;;;;;24.08;14.95;;;;;;;17.65;100.00;98047.97;4997158;28;20398;-77
2023/10/15 06:46:31;;;;;;;27.15;14.73;;;;;;;17.56;100.00;98044.06;4996557;28;20053;-76
2023/10/15 06:48:57;;;;;;;27.45;15.35;;;;;;;17.61;100.00;98035.28;4996858;28;20049;-77
2023/10/15 06:51:22;;;;;;;20.88;14.27;;;;;;;17.58;100.00;98031.22;4996127;28;20424;-76
2023/10/15 06:53:50;;;;;;;25.40;14.38;;;;;;;17.69;100.00;98030.34;4998238;28;20041;-77
2023/10/15 06:56:17;;;;;;;29.20;15.93;;;;;;;17.74;100.00;98029.63;4997723;28;20045;-73
2023/10/15 06:58:43;;;;;;;26.40;14.52;;;;;;;17.89;100.00;98028.00;5030484;28;20125;-75
2023/10/15 07:01:10;;;;;;;26.10;14.55;;;;;;;17.88;100.00;98034.41;5017590;28;20050;-75
2023/10/15 07:03:36;;;;;;;28.30;14.05;;;;;;;17.81;100.00;98038.31;4983474;28;20049;-79
2023/10/15 07:06:02;;;;;;;23.00;13.52;;;;;;;17.78;100.00;98038.81;5014724;28;20030;-76
2023/10/15 07:08:28;;;;;;;24.98;14.38;;;;;;;17.94;100.00;98044.19;5001280;28;20049;-80
2023/10/15 07:10:54;;;;;;;25.52;13.73;;;;;;;17.97;100.00;98041.06;4995491;28;20046;-80
2023/10/15 07:13:20;;;;;;;25.48;14.10;;;;;;;18.06;100.00;98055.69;4980457;28;20120;-75
2023/10/15 07:15:46;;;;;;;22.80;12.77;;;;;;;18.02;100.00;98061.81;4998007;28;20054;-78
2023/10/15 07:18:12;;;;;;;15.15;7.00;;;;;;;18.00;100.00;98077.34;4940102;28;20119;-76
2023/10/15 07:20:39;;;;;;;7.97;3.88;;;;;;;17.82;100.00;98088.31;4956802;28;20070;-75
2023/10/15 07:23:05;;;;;;;7.07;3.88;;;;;;;17.68;100.00;98095.03;4957312;28;20159;-76
2023/10/15 07:25:34;;;;;;;6.45;2.95;;;;;;;17.64;100.00;98085.81;4941733;28;20201;-75
2023/10/15 07:28:01;;;;;;;2.88;2.20;;;;;;;17.61;100.00;98091.66;4941625;28;20170;-75
2023/10/15 07:30:30;;;;;;;9.05;2.70;;;;;;;17.49;100.00;98097.09;4957464;28;20625;-76
2023/10/15 07:32:59;;;;;;;3.60;2.20;;;;;;;17.46;100.00;98091.38;4958481;28;20050;-73
2023/10/15 07:35:26;;;;;;;6.10;2.40;;;;;;;17.45;100.00;98095.13;4945109;28;20094;-74
2023/10/15 07:38:01;;;;;;;6.47;1.95;;;;;;;17.35;100.00;98084.13;5008034;28;20147;-77
2023/10/15 07:40:28;;;;;;;3.33;1.70;;;;;;;17.31;100.00;98083.81;4961748;28;20404;-75
2023/10/15 07:43:02;;;;;;;3.53;1.65;;;;;;;17.29;100.00;98099.34;4994174;28;20154;-77
2023/10/15 07:45:33;;;;;;;3.15;1.63;;;;;;;17.11;100.00;98106.72;4993407;28;20128;-76
2023/10/15 07:48:02;;;;;;;4.95;2.00;;;;;;;17.02;100.00;98100.09;4961289;28;20038;-72
2023/10/15 07:50:30;;;;;;;3.40;1.60;;;;;;;17.01;100.00;98099.28;5035756;28;20068;-74
2023/10/15 07:52:58;;;;;;;5.05;1.90;;;;;;;16.96;100.00;98090.31;5020604;28;20047;-74
2023/10/15 07:55:24;;;;;;;6.88;2.20;;;;;;;16.95;100.00;98102.09;5025562;28;20059;-75
2023/10/15 07:57:52;;;;;;;5.75;2.22;;;;;;;16.75;100.00;98099.78;5026376;28;20060;-76
2023/10/15 08:00:50;;;;;;;6.63;1.83;;;;;;;16.93;100.00;98107.69;5017468;28;20470;-73
2023/10/15 08:03:23;;;;;;;5.00;2.22;;;;;;;16.82;100.00;98100.50;5033080;28;20063;-77
2023/10/15 08:05:49;;;;;;;4.15;1.95;;;;;;;16.71;100.00;98099.44;5023150;28;20148;-76
2023/10/15 08:08:16;;;;;;;5.35;1.77;;;;;;;16.69;100.00;98100.72;4979251;28;20095;-74
2023/10/15 08:11:03;;;;;;;3.90;1.92;;;;;;;16.75;100.00;98102.47;4994651;28;20096;-74
2023/10/15 08:13:33;;;;;;;4.32;1.90;;;;;;;16.67;100.00;98100.13;5011517;28;20080;-78
2023/10/15 08:16:01;;;;;;;4.93;1.98;;;;;;;16.47;100.00;98107.69;4978943;28;20077;-76
2023/10/15 08:18:29;;;;;;;3.88;1.65;;;;;;;16.47;100.00;98103.16;4991149;28;20050;-76
2023/10/15 08:21:21;;;;;;;2.58;1.80;;;;;;;16.51;100.00;98098.16;4925205;28;20054;-74
2023/10/15 08:23:47;;;;;;;5.22;2.60;;;;;;;16.52;100.00;98105.97;4954937;28;20076;-76
2023/10/15 08:26:15;;;;;;;7.75;2.72;;;;;;;16.52;100.00;98099.78;4956245;28;20460;-73
2023/10/15 08:28:45;;;;;;;6.57;2.40;;;;;;;16.44;99.64;98100.94;4964015;28;20080;-75
2023/10/15 08:31:23;;;;;;;5.10;1.90;;;;;;;16.64;99.50;98100.59;4970465;28;20101;-81
2023/10/15 08:33:57;;;;;;;3.30;1.80;;;;;;;16.61;99.92;98099.22;4987231;28;20058;-76
2023/10/15 08:36:25;;;;;;;4.88;1.90;;;;;;;16.50;99.80;98091.97;4966448;28;20050;-76
2023/10/15 08:38:51;;;;;;;4.88;1.48;;;;;;;16.61;98.76;98095.69;4923396;28;20108;-76
2023/10/15 08:41:22;;;;;;;2.80;1.42;;;;;;;16.65;96.34;98111.09;4983752;28;20061;-75
2023/10/15 08:43:53;;;;;;;10.32;2.58;;;;;;;16.69;96.34;98106.09;4991075;28;20171;-75
2023/10/15 08:46:24;;;;;;;7.47;3.10;;;;;;;16.60;95.97;98104.81;4979993;28;20098;-77
2023/10/15 08:48:51;;;;;;;;;;;;;;;16.64;94.25;98122.03;4971168;28;20511;-77
2023/10/15 08:51:23;;;;;;;10.88;5.60;;;;;;;16.36;95.17;98111.97;4994406;28;19925;-78
2023/10/15 08:53:57;;;;;;;12.52;3.38;;;;;;;16.44;95.04;98122.38;5011116;28;20049;-77
2023/10/15 08:56:28;;;;;;;4.85;2.72;;;;;;;16.27;95.60;98125.94;4994098;28;20053;-75
2023/10/15 08:58:54;;;;;;;6.40;3.42;;;;;;;16.37;96.89;98110.13;4994537;28;20071;-79
2023/10/15 09:01:21;;;;;;;8.07;3.08;;;;;;;16.46;97.09;98111.44;4977549;28;20179;-80
2023/10/15 09:03:48;;;;;;;7.97;2.70;;;;;;;16.48;96.68;98110.16;4993812;28;20399;-76
2023/10/15 09:06:16;;;;;;;8.20;2.42;;;;;;;16.60;95.37;98119.03;5010701;28;20207;-77
2023/10/15 09:08:43;;;;;;;5.05;2.08;;;;;;;16.51;94.37;98115.03;5026779;28;20045;-75
2023/10/15 09:11:10;;;;;;;8.27;2.08;;;;;;;16.63;95.56;98110.53;5025703;28;20114;-78
2023/10/15 09:13:40;;;;;;;4.05;1.70;;;;;;;16.61;94.47;98111.78;5035861;28;20137;-78
2023/10/15 09:16:07;;;;;;;5.53;1.65;;;;;;;16.61;94.21;98099.22;5073214;28;20463;-79
2023/10/15 09:18:36;;;;;;;2.75;1.52;;;;;;;16.59;93.87;98101.28;5004687;28;20051;-79
2023/10/15 09:21:06;;;;;;;3.83;1.40;;;;;;;16.52;94.10;98097.09;5041026;28;20377;-77
2023/10/15 09:23:37;;;;;;;3.88;1.92;;;;;;;16.40;93.63;98099.75;5020157;28;20394;-82
2023/10/15 09:26:10;;;;;;;4.93;2.10;;;;;;;16.41;94.73;98093.34;5024566;28;20059;-83
2023/10/15 09:28:38;;;;;;;6.50;2.35;;;;;;;16.43;95.13;98095.78;5033322;28;20232;-77
2023/10/15 09:31:11;;;;;;;8.43;2.30;;;;;;;16.46;95.70;98100.72;4982088;28;20053;-75
2023/10/15 09:33:39;;;;;;;8.32;3.25;;;;;;;16.56;96.45;98088.38;5030943;28;20103;-81
2023/10/15 09:36:07;;;;;;;6.60;1.92;;;;;;;16.53;97.08;98080.78;4941869;28;20050;-78
2023/10/15 09:38:34;;;;;;;7.18;2.50;;;;;;;16.72;95.82;98089.53;4988725;28;20134;-76
2023/10/15 09:41:05;;;;;;;5.03;1.83;;;;;;;16.55;93.77;98092.09;4971757;28;20057;-76
2023/10/15 09:43:31;;;;;;;4.63;2.20;;;;;;;16.35;94.34;98105.00;4956108;28;20497;-73
2023/10/15 09:46:00;;;;;;;8.07;2.50;;;;;;;16.41;95.50;98105.91;4948727;28;20058;-73
2023/10/15 09:48:27;;;;;;;8.82;2.78;;;;;;;16.37;96.53;98116.31;4941101;28;20047;-72
2023/10/15 09:50:59;;;;;;;9.40;2.60;;;;;;;16.48;98.27;98109.34;4941716;28;20050;-72
2023/10/15 09:53:29;;;;;;;9.35;2.85;;;;;;;16.70;99.31;98107.69;4945703;28;20070;-72
2023/10/15 09:56:07;;;;;;;7.90;2.17;;;;;;;16.49;99.07;98110.97;4928180;28;20054;-72
2023/10/15 09:58:34;;;;;;;12.00;2.72;;;;;;;16.46;98.78;98100.72;4940342;28;20066;-72
2023/10/15 10:01:08;;;;;;;7.10;2.50;;;;;;;16.70;96.93;98103.16;5008344;28;20052;-72
2023/10/15 10:03:49;;;;;;;8.82;2.45;;;;;;;16.65;98.11;98105.72;4992752;28;20882;-71
2023/10/15 10:06:55;;;;;;;10.32;2.50;;;;;;;16.68;97.45;98099.91;4977320;28;20049;-73
2023/10/15 10:09:59;;;;;;;6.30;2.30;;;;;;;16.78;96.69;98110.03;5004117;28;20507;-76
2023/10/15 10:13:15;;;;;;;12.70;2.38;;;;;;;16.70;95.38;98100.47;5058591;28;20036;-81
2023/10/15 10:15:58;;;;;;;6.40;2.03;;;;;;;16.69;96.39;98101.53;4991753;28;20139;-79
2023/10/15 10:18:27;;;;;;;6.30;1.70;;;;;;;16.62;96.79;98100.81;5019356;28;20040;-82
2023/10/15 10:20:56;;;;;;;7.82;1.90;;;;;;;16.76;96.00;98096.88;5027324;28;20040;-80
2023/10/15 10:23:25;;;;;;;4.47;1.52;;;;;;;16.65;93.73;98105.72;5025693;28;20047;-79
2023/10/15 10:25:51;;;;;;;7.13;1.83;;;;;;;16.65;93.90;98103.03;5027221;28;20041;-79
2023/10/15 10:28:20;;;;;;;6.18;1.98;;;;;;;16.52;94.94;98099.78;5008743;28;20254;-84
2023/10/15 10:30:53;;;;;;;5.53;1.70;;;;;;;16.63;95.60;98097.13;5023989;28;20041;-76
2023/10/15 10:33:45;;;;;;;2.67;1.23;;;;;;;16.68;95.62;98097.22;4994278;28;20080;-85
2023/10/15 10:36:14;;;;;;;4.40;1.77;;;;;;;16.57;94.96;98105.28;4993743;28;20057;-85
2023/10/15 10:38:41;;;;;;;6.60;1.52;;;;;;;16.43;96.18;98098.47;5041079;28;20627;-82
2023/10/15 10:41:15;;;;;;;4.72;1.50;;;;;;;16.42;96.65;98110.25;5009691;28;20067;-81
2023/10/15 10:43:45;;;;;;;7.57;2.22;;;;;;;16.17;96.64;98113.13;5013008;28;20115;-81
2023/10/15 10:46:23;;;;;;;6.60;2.03;;;;;;;16.06;98.76;98103.22;4993773;28;20053;-81
2023/10/15 10:49:06;;;;;;;6.03;2.00;;;;;;;15.89;99.50;98104.91;4989219;28;20050;-81
2023/10/15 10:51:33;;;;;;;10.57;2.20;;;;;;;15.73;100.00;98105.53;4979301;28;20053;-81
2023/10/15 10:54:02;;;;;;;7.07;1.95;;;;;;;15.82;100.00;98093.47;4965334;28;20799;-82
2023/10/15 10:56:40;;;;;;;8.07;2.58;;;;;;;15.87;100.00;98107.00;4976584;28;20116;-78
2023/10/15 10:59:07;;;;;;;5.95;1.80;;;;;;;15.93;100.00;98106.06;5030669;28;20464;-82
2023/10/15 11:01:37;;;;;;;7.13;1.90;;;;;;;15.87;100.00;98112.34;5015999;28;20118;-81
2023/10/15 11:04:07;;;;;;;8.52;2.05;;;;;;;15.79;100.00;98101.16;5007596;28;20049;-81
2023/10/15 11:06:36;;;;;;;6.95;2.05;;;;;;;15.71;100.00;98094.28;4981390;28;20045;-79
2023/10/15 11:09:16;;;;;;;6.22;1.55;;;;;;;16.10;100.00;98082.94;5011834;28;20057;-81
2023/10/15 11:11:56;;;;;;;6.20;1.90;;;;;;;16.01;100.00;98097.72;4965952;28;20053;-71
2023/10/15 11:14:29;;;;;;;10.13;2.70;;;;;;;15.88;100.00;98097.09;4945169;28;20381;-80
2023/10/15 11:16:56;;;;;;;9.63;2.45;;;;;;;15.87;100.00;98103.47;4969892;28;20061;-79
2023/10/15 11:19:32;;;;;;;7.63;2.85;;;;;;;15.94;100.00;98115.75;4946636;28;20535;-80
2023/10/15 11:22:00;;;;;;;5.68;2.03;;;;;;;15.73;100.00;98115.44;4966554;28;20052;-78
2023/10/15 11:24:27;;;;;;;6.78;2.05;;;;;;;15.90;100.00;98113.75;4954695;28;20494;-79
2023/10/15 11:27:12;;;;;;;5.25;2.10;;;;;;;16.17;100.00;98121.16;4977786;28;20054;-77
2023/10/15 11:29:38;;;;;;;7.35;1.95;;;;;;;16.18;100.00;98119.28;4891420;28;20055;-85
2023/10/15 11:32:06;;;;;;;9.57;2.33;;;;;;;16.48;100.00;98120.06;4951723;28;20485;-79
2023/10/15 11:34:35;;;;;;;7.72;2.72;;;;;;;16.48;99.22;98109.34;4950706;28;20061;-75
2023/10/15 11:37:02;;;;;;;7.03;2.20;;;;;;;16.55;98.50;98116.22;4933839;28;20054;-73
2023/10/15 11:39:37;;;;;;;8.77;2.03;;;;;;;16.24;97.56;98132.59;4950754;28;20057;-77
2023/10/15 11:42:04;;;;;;;4.88;1.95;;;;;;;16.48;98.37;98128.91;4945852;28;20070;-73
2023/10/15 11:44:37;;;;;;;5.70;1.80;;;;;;;16.70;98.72;98121.94;4945090;28;20053;-75
2023/10/15 11:47:15;;;;;;;6.35;1.73;;;;;;;16.88;98.28;98123.69;5010976;28;20442;-74
2023/10/15 11:49:42;;;;;;;8.30;1.95;;;;;;;16.84;97.71;98114.47;5030542;28;20115;-73
2023/10/15 11:52:18;;;;;;;6.97;2.10;;;;;;;17.26;96.49;98112.41;5031572;28;20053;-74
2023/10/15 11:54:49;;;;;;;10.13;2.10;;;;;;;17.08;95.25;98125.97;5018121;28;20080;-75
2023/10/15 11:57:23;;;;;;;5.30;1.60;;;;;;;17.10;94.83;98124.69;5035462;28;20053;-76
2023/10/15 11:59:51;;;;;;;4.65;1.80;;;;;;;17.28;94.74;98129.09;5017864;28;20131;-73
2023/10/15 12:02:20;;;;;;;5.95;2.13;;;;;;;17.17;94.65;98124.56;4995926;28;20053;-74